createdAt,value
2019-05-29T00:01:44.549Z,3.37
2019-05-29T00:04:12.284Z,3.27
2019-05-29T00:06:38.972Z,3.13
2019-05-29T00:09:06.014Z,3.77
2019-05-29T00:11:32.626Z,3.43
2019-05-29T00:13:59.183Z,3.87
2019-05-29T00:16:25.630Z,3.50
2019-05-29T00:18:52.015Z,3.67
2019-05-29T00:21:18.683Z,3.20
2019-05-29T00:23:45.247Z,4.00
2019-05-29T00:26:12.480Z,3.50
2019-05-29T00:28:38.964Z,4.30
2019-05-29T00:31:05.819Z,3.40
2019-05-29T00:33:32.375Z,3.43
2019-05-29T00:35:58.855Z,3.63
2019-05-29T00:38:25.312Z,3.30
2019-05-29T00:40:51.765Z,3.60
2019-05-29T00:43:18.148Z,3.97
2019-05-29T00:45:44.517Z,4.00
2019-05-29T00:48:11.654Z,3.77
2019-05-29T00:50:38.186Z,4.17
2019-05-29T00:53:04.633Z,3.97
2019-05-29T00:55:31.111Z,4.20
2019-05-29T00:57:57.451Z,4.80
2019-05-29T01:00:24.019Z,4.73
2019-05-29T01:02:50.568Z,4.33
2019-05-29T01:05:18.159Z,4.33
2019-05-29T01:07:44.752Z,4.93
2019-05-29T01:10:13.011Z,4.57
2019-05-29T01:12:39.685Z,4.60
2019-05-29T01:15:06.344Z,4.20
2019-05-29T01:17:32.804Z,4.97
2019-05-29T01:19:59.376Z,4.60
2019-05-29T01:22:25.829Z,5.30
2019-05-29T01:24:52.207Z,5.17
2019-05-29T01:27:18.881Z,5.13
2019-05-29T01:29:45.423Z,5.17
2019-05-29T01:32:13.344Z,4.93
2019-05-29T01:34:39.910Z,5.53
2019-05-29T01:37:06.345Z,6.07
2019-05-29T01:39:32.834Z,6.13
2019-05-29T01:41:59.401Z,5.40
2019-05-29T01:44:25.763Z,5.93
2019-05-29T01:46:52.224Z,6.07
2019-05-29T01:49:19.644Z,5.50
2019-05-29T01:51:46.131Z,6.30
2019-05-29T01:54:12.505Z,5.60
2019-05-29T01:56:38.894Z,6.00
2019-05-29T01:59:05.475Z,6.03
2019-05-29T02:01:31.999Z,6.57
2019-05-29T02:03:58.350Z,7.13
2019-05-29T02:06:24.823Z,7.10
2019-05-29T02:08:51.167Z,7.43
2019-05-29T02:11:17.551Z,7.97
2019-05-29T02:13:44.115Z,7.63
2019-05-29T02:16:10.574Z,8.30
2019-05-29T02:18:37.042Z,7.67
2019-05-29T02:21:03.419Z,7.37
2019-05-29T02:23:29.871Z,9.07
2019-05-29T02:25:56.343Z,8.50
2019-05-29T02:28:22.798Z,9.70
2019-05-29T02:30:49.223Z,10.03
2019-05-29T02:33:15.576Z,10.03
2019-05-29T02:35:42.043Z,11.60
2019-05-29T02:38:08.426Z,11.10
2019-05-29T02:40:34.799Z,12.27
2019-05-29T02:43:01.264Z,11.67
2019-05-29T02:45:50.307Z,10.57
2019-05-29T02:47:56.082Z,12.23
2019-05-29T02:50:23.925Z,10.90
2019-05-29T02:52:50.465Z,10.60
2019-05-29T02:55:16.947Z,11.33
2019-05-29T02:57:43.291Z,11.23
2019-05-29T03:00:10.165Z,10.63
2019-05-29T03:02:36.620Z,10.53
2019-05-29T03:05:04.192Z,11.50
2019-05-29T03:07:32.255Z,11.03
2019-05-29T03:09:59.048Z,10.50
2019-05-29T03:12:27.083Z,9.97
2019-05-29T03:14:53.677Z,10.17
2019-05-29T03:17:20.025Z,10.20
2019-05-29T03:19:46.407Z,9.73
2019-05-29T03:22:12.944Z,9.30
2019-05-29T03:24:39.288Z,9.63
2019-05-29T03:27:05.757Z,9.33
2019-05-29T03:29:32.183Z,8.87
2019-05-29T03:31:59.201Z,9.13
2019-05-29T03:34:28.509Z,9.77
2019-05-29T03:36:54.241Z,9.07
2019-05-29T03:39:20.680Z,8.83
2019-05-29T03:41:47.152Z,8.97
2019-05-29T03:44:13.601Z,8.20
2019-05-29T03:46:45.169Z,9.40
2019-05-29T03:49:08.329Z,8.20
2019-05-29T03:51:36.707Z,8.20
2019-05-29T03:54:02.999Z,8.83
2019-05-29T03:56:30.560Z,7.10
2019-05-29T03:58:57.238Z,7.73
2019-05-29T04:01:23.603Z,7.60
2019-05-29T04:03:50.166Z,7.60
2019-05-29T04:06:16.638Z,7.90
2019-05-29T04:08:43.084Z,7.90
2019-05-29T04:11:09.496Z,8.10
2019-05-29T04:13:38.473Z,8.07
2019-05-29T04:16:04.591Z,7.93
2019-05-29T04:18:31.524Z,8.07
2019-05-29T04:20:59.231Z,7.73
2019-05-29T04:23:27.849Z,8.47
2019-05-29T04:25:54.983Z,7.70
2019-05-29T04:28:21.470Z,7.63
2019-05-29T04:30:48.079Z,7.83
2019-05-29T04:33:14.607Z,8.07
2019-05-29T04:35:40.981Z,7.47
2019-05-29T04:38:07.331Z,7.67
2019-05-29T04:40:34.983Z,8.17
2019-05-29T04:43:02.085Z,6.97
2019-05-29T04:45:28.931Z,7.67
2019-05-29T04:47:55.895Z,7.83
2019-05-29T04:50:22.282Z,7.50
2019-05-29T04:52:48.751Z,7.50
2019-05-29T04:55:18.155Z,8.30
2019-05-29T04:57:44.563Z,8.23
2019-05-29T05:00:11.321Z,7.50
2019-05-29T05:02:37.789Z,6.67
2019-05-29T05:05:04.432Z,7.60
2019-05-29T05:07:31.158Z,7.27
2019-05-29T05:10:00.271Z,7.10
2019-05-29T05:12:26.759Z,7.30
2019-05-29T05:14:53.138Z,7.07
2019-05-29T05:17:26.104Z,7.37
2019-05-29T05:19:47.878Z,7.60
2019-05-29T05:22:14.346Z,6.17
2019-05-29T05:24:43.858Z,7.90
2019-05-29T05:27:09.063Z,6.30
2019-05-29T05:29:36.290Z,7.27
2019-05-29T05:32:02.899Z,6.83
2019-05-29T05:34:30.552Z,6.30
2019-05-29T05:36:56.927Z,6.47
2019-05-29T05:39:23.678Z,6.83
2019-05-29T05:41:50.330Z,6.33
2019-05-29T05:44:16.800Z,6.07
2019-05-29T05:46:43.292Z,6.00
2019-05-29T05:49:09.701Z,6.60
2019-05-29T05:51:39.860Z,6.70
2019-05-29T05:54:04.549Z,5.87
2019-05-29T05:56:33.743Z,6.47
2019-05-29T05:59:00.171Z,6.27
2019-05-29T06:01:26.571Z,6.23
2019-05-29T06:03:53.074Z,5.67
2019-05-29T06:06:19.546Z,6.10
2019-05-29T06:08:46.047Z,5.47
2019-05-29T06:11:12.533Z,5.67
2019-05-29T06:13:39.121Z,5.87
2019-05-29T06:16:05.625Z,5.95
2019-05-29T06:18:32.395Z,5.42
2019-05-29T06:20:58.944Z,6.13
2019-05-29T06:23:25.519Z,5.45
2019-05-29T06:25:52.111Z,5.63
2019-05-29T06:28:18.506Z,5.83
2019-05-29T06:30:45.167Z,5.50
2019-05-29T06:33:11.788Z,5.73
2019-05-29T06:35:39.529Z,5.87
2019-05-29T06:38:06.432Z,6.20
2019-05-29T06:40:33.918Z,6.00
2019-05-29T06:43:00.621Z,5.87
2019-05-29T06:45:28.994Z,6.10
2019-05-29T06:47:55.407Z,5.70
2019-05-29T06:50:21.954Z,6.17
2019-05-29T06:52:48.448Z,6.53
2019-05-29T06:55:14.812Z,6.10
2019-05-29T06:57:42.667Z,5.85
2019-05-29T07:00:09.795Z,6.00
2019-05-29T07:02:36.457Z,5.77
2019-05-29T07:05:04.333Z,6.13
2019-05-29T07:07:30.741Z,5.95
2019-05-29T07:09:57.142Z,5.45
2019-05-29T07:12:23.640Z,5.53
2019-05-29T07:14:50.022Z,5.35
2019-05-29T07:17:16.442Z,5.07
2019-05-29T07:19:54.188Z,5.03
2019-05-29T07:22:11.560Z,4.73
2019-05-29T07:24:38.746Z,4.80
2019-05-29T07:27:05.450Z,4.63
2019-05-29T07:29:31.840Z,4.83
2019-05-29T07:31:58.520Z,5.00
2019-05-29T07:34:25.017Z,4.73
2019-05-29T07:36:51.615Z,4.40
2019-05-29T07:39:18.125Z,4.50
2019-05-29T07:41:45.674Z,4.63
2019-05-29T07:44:12.302Z,4.43
2019-05-29T07:46:39.926Z,4.22
2019-05-29T07:49:06.621Z,4.60
2019-05-29T07:51:33.183Z,3.52
2019-05-29T07:53:59.620Z,3.65
2019-05-29T07:56:26.060Z,3.62
2019-05-29T07:59:01.686Z,4.15
2019-05-29T08:01:20.844Z,3.80
2019-05-29T08:03:47.552Z,3.98
2019-05-29T08:06:14.213Z,3.65
2019-05-29T08:08:41.198Z,3.15
2019-05-29T08:11:07.723Z,2.92
2019-05-29T08:13:34.116Z,3.02
2019-05-29T08:16:02.979Z,3.37
2019-05-29T08:18:29.007Z,2.77
2019-05-29T08:20:55.483Z,3.08
2019-05-29T08:23:21.885Z,2.20
2019-05-29T08:25:49.557Z,1.98
2019-05-29T08:28:16.143Z,2.20
2019-05-29T08:30:48.482Z,2.08
2019-05-29T08:33:11.112Z,2.10
2019-05-29T08:35:37.611Z,2.00
2019-05-29T08:38:04.084Z,2.15
2019-05-29T08:40:30.585Z,1.67
2019-05-29T08:42:57.060Z,1.67
2019-05-29T08:45:23.557Z,1.45
2019-05-29T08:47:50.037Z,1.82
2019-05-29T08:50:18.454Z,1.90
2019-05-29T08:52:47.978Z,1.85
2019-05-29T08:55:14.682Z,2.02
2019-05-29T08:57:42.559Z,1.90
2019-05-29T09:00:09.586Z,1.70
2019-05-29T09:02:36.060Z,1.47
2019-05-29T09:05:03.977Z,1.60
2019-05-29T09:07:30.546Z,1.35
2019-05-29T09:09:56.944Z,1.60
2019-05-29T09:12:23.417Z,1.57
2019-05-29T09:14:49.812Z,1.65
2019-05-29T09:17:16.932Z,1.70
2019-05-29T09:19:46.744Z,1.67
2019-05-29T09:22:13.862Z,2.15
2019-05-29T09:24:41.212Z,1.77
2019-05-29T09:27:10.504Z,1.65
2019-05-29T09:29:36.997Z,2.40
2019-05-29T09:32:03.483Z,1.55
2019-05-29T09:34:29.852Z,1.90
2019-05-29T09:36:56.261Z,1.80
2019-05-29T09:39:22.863Z,1.70
2019-05-29T09:41:49.354Z,1.80
2019-05-29T09:44:31.287Z,1.70
2019-05-29T09:46:44.502Z,1.98
2019-05-29T09:49:10.974Z,1.70
2019-05-29T09:51:37.412Z,1.52
2019-05-29T09:54:03.928Z,2.30
2019-05-29T09:56:30.400Z,2.00
2019-05-29T09:58:58.337Z,1.80
2019-05-29T10:01:25.889Z,2.10
2019-05-29T10:03:54.624Z,1.75
2019-05-29T10:06:20.877Z,2.05
2019-05-29T10:08:47.349Z,1.90
2019-05-29T10:11:13.869Z,2.00
2019-05-29T10:13:40.537Z,2.15
2019-05-29T10:16:07.123Z,1.95
2019-05-29T10:18:33.592Z,1.90
2019-05-29T10:21:01.289Z,2.10
2019-05-29T10:23:27.921Z,1.92
2019-05-29T10:25:56.391Z,1.95
2019-05-29T10:28:23.004Z,1.85
2019-05-29T10:30:50.273Z,1.80
2019-05-29T10:33:16.836Z,2.30
2019-05-29T10:35:44.663Z,2.17
2019-05-29T10:38:11.425Z,2.30
2019-05-29T10:40:37.901Z,2.15
2019-05-29T10:43:04.445Z,2.20
2019-05-29T10:45:31.022Z,2.55
2019-05-29T10:47:57.554Z,2.30
2019-05-29T10:50:23.948Z,2.10
2019-05-29T10:52:52.159Z,2.12
2019-05-29T10:55:20.685Z,2.30
2019-05-29T10:57:48.829Z,2.02
2019-05-29T11:00:15.680Z,2.58
2019-05-29T11:02:42.436Z,2.15
2019-05-29T11:05:09.017Z,2.15
2019-05-29T11:07:35.415Z,2.42
2019-05-29T11:10:01.897Z,2.27
2019-05-29T11:12:28.373Z,2.25
2019-05-29T11:14:55.061Z,2.10
2019-05-29T11:17:21.647Z,2.17
2019-05-29T11:19:49.134Z,2.20
2019-05-29T11:22:25.821Z,2.42
2019-05-29T11:24:44.199Z,2.52
2019-05-29T11:27:10.657Z,2.15
2019-05-29T11:29:37.059Z,2.85
2019-05-29T11:32:03.625Z,2.27
2019-05-29T11:34:30.037Z,2.35
2019-05-29T11:36:56.505Z,2.62
2019-05-29T11:39:22.911Z,3.00
2019-05-29T11:41:50.557Z,3.22
2019-05-29T11:44:17.117Z,2.62
2019-05-29T11:46:43.589Z,2.58
2019-05-29T11:49:09.984Z,2.75
2019-05-29T11:51:36.424Z,3.08
2019-05-29T11:54:03.137Z,3.45
2019-05-29T11:56:29.548Z,3.25
2019-05-29T11:58:56.949Z,3.00
2019-05-29T12:01:23.764Z,3.37
2019-05-29T12:04:13.416Z,3.40
2019-05-29T12:06:18.488Z,3.27
2019-05-29T12:08:44.910Z,3.17
2019-05-29T12:11:11.292Z,3.98
2019-05-29T12:13:37.668Z,3.77
2019-05-29T12:16:04.253Z,3.98
2019-05-29T12:18:30.632Z,4.37
2019-05-29T12:20:58.493Z,4.17
2019-05-29T12:23:26.894Z,4.80
2019-05-29T12:26:12.626Z,4.30
2019-05-29T12:28:21.823Z,4.10
2019-05-29T12:30:53.258Z,4.03
2019-05-29T12:33:19.697Z,3.90
2019-05-29T12:35:46.126Z,3.90
2019-05-29T12:38:12.496Z,4.00
2019-05-29T12:40:38.913Z,4.10
2019-05-29T12:43:05.495Z,3.98
2019-05-29T12:45:31.959Z,3.67
2019-05-29T12:47:59.755Z,3.40
2019-05-29T12:50:26.606Z,4.08
2019-05-29T12:52:53.657Z,4.25
2019-05-29T12:55:20.304Z,4.00
2019-05-29T12:57:46.728Z,3.62
2019-05-29T13:00:14.410Z,3.92
2019-05-29T13:02:40.907Z,4.28
2019-05-29T13:05:18.070Z,3.67
2019-05-29T13:07:37.189Z,3.85
2019-05-29T13:10:05.198Z,3.27
2019-05-29T13:12:31.818Z,3.75
2019-05-29T13:14:58.636Z,3.75
2019-05-29T13:17:25.200Z,3.42
2019-05-29T13:19:51.835Z,4.10
2019-05-29T13:22:18.399Z,4.60
2019-05-29T13:24:44.780Z,3.90
2019-05-29T13:27:11.290Z,4.35
2019-05-29T13:29:37.673Z,4.33
2019-05-29T13:32:06.010Z,3.98
2019-05-29T13:34:32.551Z,4.00
2019-05-29T13:37:00.636Z,3.45
2019-05-29T13:39:29.898Z,3.80
2019-05-29T13:41:56.154Z,3.27
2019-05-29T13:44:22.725Z,3.50
2019-05-29T13:46:49.386Z,4.00
2019-05-29T13:49:15.850Z,3.80
2019-05-29T13:51:42.311Z,4.72
2019-05-29T13:54:15.378Z,4.00
2019-05-29T13:56:37.137Z,3.80
2019-05-29T13:59:06.696Z,3.30
2019-05-29T14:01:33.654Z,3.25
2019-05-29T14:04:00.186Z,3.87
2019-05-29T14:06:26.841Z,3.47
2019-05-29T14:08:53.493Z,4.00
2019-05-29T14:11:20.037Z,4.05
2019-05-29T14:13:46.449Z,3.15
2019-05-29T14:16:13.063Z,3.20
2019-05-29T14:18:39.644Z,3.50
2019-05-29T14:21:07.354Z,3.65
2019-05-29T14:23:34.025Z,2.75
2019-05-29T14:26:00.660Z,3.05
2019-05-29T14:28:27.140Z,2.60
2019-05-29T14:30:53.541Z,2.90
2019-05-29T14:33:20.063Z,2.70
2019-05-29T14:35:46.534Z,3.08
2019-05-29T14:38:15.037Z,3.20
2019-05-29T14:40:41.453Z,3.30
2019-05-29T14:43:11.362Z,3.35
2019-05-29T14:45:36.410Z,3.47
2019-05-29T14:48:04.058Z,3.42
2019-05-29T14:50:30.752Z,4.20
2019-05-29T14:52:57.181Z,3.70
2019-05-29T14:55:23.771Z,4.20
2019-05-29T14:57:50.365Z,4.30
2019-05-29T15:00:24.909Z,4.50
2019-05-29T15:02:48.985Z,4.62
2019-05-29T15:05:15.692Z,5.55
2019-05-29T15:07:42.199Z,6.33
2019-05-29T15:10:23.936Z,7.08
2019-05-29T15:12:37.750Z,12.40
2019-05-29T15:15:06.688Z,15.48
2019-05-29T15:17:33.327Z,9.63
2019-05-29T15:19:59.840Z,6.33
2019-05-29T15:22:26.252Z,5.47
2019-05-29T15:25:04.373Z,4.83
2019-05-29T15:27:22.860Z,4.17
2019-05-29T15:29:49.383Z,4.75
2019-05-29T15:32:16.698Z,4.40
2019-05-29T15:34:43.270Z,4.85
2019-05-29T15:37:12.157Z,4.47
2019-05-29T15:39:38.079Z,5.25
2019-05-29T15:42:04.510Z,4.72
2019-05-29T15:44:31.087Z,4.90
2019-05-29T15:46:57.566Z,6.53
2019-05-29T15:49:23.966Z,4.80
2019-05-29T15:51:50.701Z,4.95
2019-05-29T15:54:17.605Z,5.03
2019-05-29T15:56:44.199Z,4.67
2019-05-29T15:59:12.116Z,4.25
2019-05-29T16:01:39.043Z,4.22
2019-05-29T16:04:05.533Z,4.45
2019-05-29T16:06:31.966Z,4.58
2019-05-29T16:08:58.386Z,4.62
2019-05-29T16:11:25.678Z,4.10
2019-05-29T16:13:54.285Z,3.98
2019-05-29T16:16:20.781Z,4.33
2019-05-29T16:18:47.172Z,4.37
2019-05-29T16:21:14.737Z,4.20
2019-05-29T16:23:41.542Z,4.33
2019-05-29T16:26:08.028Z,3.45
2019-05-29T16:28:34.423Z,4.72
2019-05-29T16:31:01.056Z,4.33
2019-05-29T16:33:27.419Z,4.28
2019-05-29T16:35:53.846Z,4.53
2019-05-29T16:38:21.710Z,4.67
2019-05-29T16:40:48.357Z,3.90
2019-05-29T16:43:15.926Z,4.30
2019-05-29T16:45:42.672Z,5.08
2019-05-29T16:48:09.112Z,4.37
2019-05-29T16:50:35.762Z,4.35
2019-05-29T16:53:02.189Z,4.40
2019-05-29T16:55:28.719Z,4.50
2019-05-29T16:57:55.201Z,4.20
2019-05-29T17:00:21.957Z,3.77
2019-05-29T17:02:48.481Z,3.75
2019-05-29T17:05:15.796Z,4.30
2019-05-29T17:07:42.568Z,3.85
2019-05-29T17:10:09.271Z,4.90
2019-05-29T17:12:35.786Z,4.03
2019-05-29T17:15:04.087Z,4.35
2019-05-29T17:17:30.752Z,4.00
2019-05-29T17:19:57.270Z,3.95
2019-05-29T17:22:24.844Z,4.30
2019-05-29T17:24:51.445Z,4.17
2019-05-29T17:27:18.744Z,4.17
2019-05-29T17:29:45.389Z,3.90
2019-05-29T17:32:11.865Z,4.20
2019-05-29T17:34:38.464Z,3.70
2019-05-29T17:37:04.861Z,3.83
2019-05-29T17:39:31.269Z,3.80
2019-05-29T17:41:57.649Z,3.45
2019-05-29T17:44:24.062Z,3.60
2019-05-29T17:46:50.639Z,3.95
2019-05-29T17:49:17.740Z,4.05
2019-05-29T17:51:44.463Z,3.50
2019-05-29T17:54:10.845Z,3.58
2019-05-29T17:56:37.336Z,3.62
2019-05-29T17:59:03.814Z,3.58
2019-05-29T18:01:30.962Z,3.60
2019-05-29T18:03:57.617Z,3.50
2019-05-29T18:06:24.566Z,8.98
2019-05-29T18:08:51.008Z,4.35
2019-05-29T18:11:18.786Z,3.50
2019-05-29T18:13:45.396Z,3.05
2019-05-29T18:16:11.897Z,3.17
2019-05-29T18:18:38.278Z,3.72
2019-05-29T18:21:04.880Z,3.00
2019-05-29T18:23:31.364Z,3.75
2019-05-29T18:25:57.860Z,3.27
2019-05-29T18:28:24.246Z,3.65
2019-05-29T18:30:50.650Z,3.10
2019-05-29T18:33:18.561Z,3.10
2019-05-29T18:35:45.113Z,3.30
2019-05-29T18:38:11.901Z,3.33
2019-05-29T18:40:38.498Z,3.70
2019-05-29T18:43:05.079Z,3.65
2019-05-29T18:45:31.512Z,3.60
2019-05-29T18:47:58.095Z,3.70
2019-05-29T18:50:25.590Z,3.90
2019-05-29T18:52:52.114Z,4.23
2019-05-29T18:55:18.803Z,4.90
2019-05-29T18:57:45.280Z,3.90
2019-05-29T19:00:12.278Z,3.20
2019-05-29T19:02:38.767Z,3.57
2019-05-29T19:05:05.736Z,3.80
2019-05-29T19:07:32.233Z,3.67
2019-05-29T19:09:58.708Z,3.93
2019-05-29T19:12:25.725Z,3.83
2019-05-29T19:14:52.289Z,3.83
2019-05-29T19:17:18.893Z,3.97
2019-05-29T19:19:45.256Z,4.20
2019-05-29T19:22:11.765Z,3.97
2019-05-29T19:24:38.213Z,4.37
2019-05-29T19:27:04.797Z,4.63
2019-05-29T19:29:31.366Z,4.77
2019-05-29T19:31:57.885Z,4.47
2019-05-29T19:34:25.211Z,5.17
2019-05-29T19:36:51.911Z,4.40
2019-05-29T19:39:18.382Z,4.70
2019-05-29T19:41:44.885Z,4.53
2019-05-29T19:44:11.356Z,5.27
2019-05-29T19:46:53.115Z,4.93
2019-05-29T19:49:06.252Z,4.77
2019-05-29T19:51:33.518Z,4.10
2019-05-29T19:54:00.036Z,4.73
2019-05-29T19:56:27.542Z,4.73
2019-05-29T19:58:54.037Z,4.77
2019-05-29T20:01:30.783Z,4.77
2019-05-29T20:03:48.927Z,4.67
2019-05-29T20:06:15.548Z,4.43
2019-05-29T20:08:42.038Z,4.80
2019-05-29T20:11:08.540Z,5.30
2019-05-29T20:13:35.835Z,5.00
2019-05-29T20:16:02.394Z,7.33
2019-05-29T20:18:29.990Z,7.53
2019-05-29T20:20:57.264Z,6.77
2019-05-29T20:23:23.760Z,7.53
2019-05-29T20:25:50.128Z,7.57
2019-05-29T20:28:16.728Z,7.03
2019-05-29T20:30:43.128Z,6.70
2019-05-29T20:33:09.620Z,6.60
2019-05-29T20:35:39.042Z,5.50
2019-05-29T20:38:08.999Z,5.77
2019-05-29T20:40:35.472Z,5.53
2019-05-29T20:43:02.065Z,5.83
2019-05-29T20:45:28.547Z,5.33
2019-05-29T20:47:55.048Z,6.00
2019-05-29T20:50:21.684Z,6.50
2019-05-29T20:52:48.076Z,5.77
2019-05-29T20:55:14.499Z,6.97
2019-05-29T20:57:42.147Z,6.60
2019-05-29T21:00:09.260Z,6.57
2019-05-29T21:02:36.073Z,6.70
2019-05-29T21:05:04.151Z,6.87
2019-05-29T21:07:30.719Z,7.10
2019-05-29T21:09:57.145Z,7.37
2019-05-29T21:12:23.560Z,6.83
2019-05-29T21:14:50.066Z,7.73
2019-05-29T21:17:16.423Z,7.60
2019-05-29T21:19:43.031Z,7.90
2019-05-29T21:22:09.395Z,7.37
2019-05-29T21:24:36.454Z,8.13
2019-05-29T21:27:03.172Z,7.37
2019-05-29T21:29:29.673Z,7.87
2019-05-29T21:31:56.081Z,8.57
2019-05-29T21:34:22.680Z,9.40
2019-05-29T21:36:49.262Z,8.50
2019-05-29T21:39:15.750Z,8.43
2019-05-29T21:41:42.563Z,8.43
2019-05-29T21:44:09.245Z,8.43
2019-05-29T21:46:36.707Z,7.80
2019-05-29T21:49:03.249Z,8.00
2019-05-29T21:51:29.783Z,7.73
2019-05-29T21:53:56.180Z,8.07
2019-05-29T21:56:22.664Z,8.43
2019-05-29T21:59:02.930Z,8.00
2019-05-29T22:01:17.641Z,7.93
2019-05-29T22:03:44.479Z,8.30
2019-05-29T22:06:11.117Z,8.00
2019-05-29T22:08:38.688Z,8.00
2019-05-29T22:11:05.601Z,8.10
2019-05-29T22:13:32.080Z,8.47
2019-05-29T22:15:58.877Z,9.10
2019-05-29T22:18:25.344Z,9.30
2019-05-29T22:20:52.919Z,8.70
2019-05-29T22:23:19.433Z,10.57
2019-05-29T22:25:46.131Z,8.73
2019-05-29T22:28:12.604Z,9.80
2019-05-29T22:30:39.101Z,8.60
2019-05-29T22:33:05.617Z,9.73
2019-05-29T22:35:32.295Z,9.53
2019-05-29T22:38:00.065Z,9.60
2019-05-29T22:40:26.803Z,9.13
2019-05-29T22:42:53.484Z,10.53
2019-05-29T22:45:19.984Z,9.57
2019-05-29T22:47:46.368Z,8.97
2019-05-29T22:50:12.907Z,9.37
2019-05-29T22:52:39.380Z,9.70
2019-05-29T22:55:05.873Z,8.50
2019-05-29T22:57:32.251Z,9.67
2019-05-29T22:59:58.657Z,9.37
2019-05-29T23:02:25.083Z,10.57
2019-05-29T23:04:52.172Z,9.40
2019-05-29T23:07:18.780Z,9.03
2019-05-29T23:09:45.194Z,10.23
2019-05-29T23:12:11.584Z,9.53
2019-05-29T23:14:38.056Z,9.17
2019-05-29T23:17:04.768Z,9.47
2019-05-29T23:19:31.353Z,9.37
2019-05-29T23:21:59.024Z,10.03
2019-05-29T23:24:25.560Z,10.60
2019-05-29T23:26:52.926Z,9.23
2019-05-29T23:29:19.493Z,8.97
2019-05-29T23:31:45.988Z,9.80
2019-05-29T23:34:12.502Z,9.90
2019-05-29T23:36:38.989Z,11.10
2019-05-29T23:39:05.486Z,10.43
2019-05-29T23:41:32.082Z,10.00
2019-05-29T23:43:59.511Z,9.70
2019-05-29T23:46:26.160Z,10.33
2019-05-29T23:48:53.509Z,10.57
2019-05-29T23:51:20.172Z,9.40
2019-05-29T23:53:46.650Z,10.13
2019-05-29T23:56:13.045Z,9.47
2019-05-29T23:58:39.456Z,9.43
